createdAt,value
2019-05-12T00:00:18.358Z,993.85
2019-05-12T00:01:18.685Z,993.83
2019-05-12T00:02:17.886Z,993.83
2019-05-12T00:03:18.942Z,993.86
2019-05-12T00:04:18.914Z,993.87
2019-05-12T00:05:18.478Z,993.86
2019-05-12T00:06:17.786Z,993.89
2019-05-12T00:07:18.075Z,993.92
2019-05-12T00:08:18.840Z,993.90
2019-05-12T00:09:18.823Z,993.93
2019-05-12T00:10:17.846Z,993.94
2019-05-12T00:11:17.977Z,993.93
2019-05-12T00:12:18.444Z,993.98
2019-05-12T00:13:19.008Z,994.05
2019-05-12T00:14:17.835Z,994.02
2019-05-12T00:15:19.151Z,994.01
2019-05-12T00:16:17.721Z,994.05
2019-05-12T00:17:18.770Z,994.01
2019-05-12T00:18:18.044Z,994.07
2019-05-12T00:19:24.671Z,994.09
2019-05-12T00:20:18.146Z,994.14
2019-05-12T00:21:17.667Z,994.14
2019-05-12T00:22:18.073Z,994.13
2019-05-12T00:23:24.910Z,994.15
2019-05-12T00:24:18.664Z,994.16
2019-05-12T00:25:18.077Z,994.20
2019-05-12T00:26:18.652Z,994.19
2019-05-12T00:27:17.911Z,994.28
2019-05-12T00:28:17.915Z,994.27
2019-05-12T00:29:18.523Z,994.34
2019-05-12T00:30:18.486Z,994.26
2019-05-12T00:31:18.862Z,994.32
2019-05-12T00:32:17.938Z,994.39
2019-05-12T00:33:17.956Z,994.41
2019-05-12T00:34:18.383Z,994.40
2019-05-12T00:35:18.239Z,994.37
2019-05-12T00:36:18.572Z,994.46
2019-05-12T00:37:18.514Z,994.46
2019-05-12T00:38:17.660Z,994.45
2019-05-12T00:39:19.136Z,994.54
2019-05-12T00:40:19.089Z,994.48
2019-05-12T00:41:18.152Z,994.58
2019-05-12T00:42:18.319Z,994.60
2019-05-12T00:43:18.784Z,994.60
2019-05-12T00:44:18.404Z,994.62
2019-05-12T00:45:18.112Z,994.63
2019-05-12T00:46:18.317Z,994.60
2019-05-12T00:47:18.784Z,994.61
2019-05-12T00:48:17.913Z,994.67
2019-05-12T00:49:18.684Z,994.67
2019-05-12T00:50:18.456Z,994.66
2019-05-12T00:51:23.862Z,994.68
2019-05-12T00:52:18.635Z,994.71
2019-05-12T00:53:18.936Z,994.67
2019-05-12T00:54:17.850Z,994.64
2019-05-12T00:55:18.411Z,994.71
2019-05-12T00:56:17.741Z,994.68
2019-05-12T00:57:18.160Z,994.68
2019-05-12T00:58:19.381Z,994.71
2019-05-12T00:59:18.842Z,994.69
2019-05-12T01:00:17.864Z,994.73
2019-05-12T01:01:18.393Z,994.79
2019-05-12T01:02:18.339Z,994.75
2019-05-12T01:03:18.933Z,994.78
2019-05-12T01:04:17.569Z,994.85
2019-05-12T01:05:17.703Z,994.83
2019-05-12T01:06:17.812Z,994.79
2019-05-12T01:07:18.366Z,994.91
2019-05-12T01:08:18.735Z,994.90
2019-05-12T01:09:17.614Z,995.11
2019-05-12T01:10:17.959Z,995.04
2019-05-12T01:11:17.802Z,995.10
2019-05-12T01:12:18.110Z,995.14
2019-05-12T01:13:18.726Z,995.08
2019-05-12T01:14:18.688Z,995.15
2019-05-12T01:15:17.818Z,995.17
2019-05-12T01:16:18.387Z,995.19
2019-05-12T01:17:17.722Z,995.25
2019-05-12T01:18:18.104Z,995.28
2019-05-12T01:19:18.584Z,995.31
2019-05-12T01:20:17.838Z,995.32
2019-05-12T01:21:18.464Z,995.34
2019-05-12T01:22:18.614Z,995.37
2019-05-12T01:23:23.750Z,995.39
2019-05-12T01:24:18.527Z,995.42
2019-05-12T01:25:17.589Z,995.46
2019-05-12T01:26:17.895Z,995.45
2019-05-12T01:27:18.084Z,995.51
2019-05-12T01:28:18.381Z,995.50
2019-05-12T01:29:17.655Z,995.53
2019-05-12T01:30:18.117Z,995.61
2019-05-12T01:31:18.020Z,995.60
2019-05-12T01:32:18.275Z,995.66
2019-05-12T01:33:18.143Z,995.63
2019-05-12T01:34:18.169Z,995.71
2019-05-12T01:35:18.450Z,995.76
2019-05-12T01:36:18.141Z,995.70
2019-05-12T01:37:18.400Z,995.76
2019-05-12T01:38:18.264Z,995.77
2019-05-12T01:39:18.599Z,995.78
2019-05-12T01:40:18.864Z,995.88
2019-05-12T01:41:18.017Z,995.85
2019-05-12T01:42:18.083Z,995.86
2019-05-12T01:43:18.622Z,995.76
2019-05-12T01:44:18.387Z,995.89
2019-05-12T01:45:18.033Z,995.90
2019-05-12T01:46:18.153Z,995.93
2019-05-12T01:47:18.570Z,995.98
2019-05-12T01:48:18.319Z,995.99
2019-05-12T01:49:18.503Z,996.07
2019-05-12T01:50:17.757Z,996.00
2019-05-12T01:51:17.791Z,996.08
2019-05-12T01:52:17.844Z,996.05
2019-05-12T01:53:18.087Z,996.14
2019-05-12T01:54:18.710Z,996.19
2019-05-12T01:55:23.180Z,996.18
2019-05-12T01:56:18.166Z,996.19
2019-05-12T01:57:18.672Z,996.25
2019-05-12T01:58:19.050Z,996.27
2019-05-12T01:59:18.375Z,996.28
2019-05-12T02:00:18.147Z,996.27
2019-05-12T02:01:18.389Z,996.30
2019-05-12T02:02:17.914Z,996.48
2019-05-12T02:03:17.834Z,996.34
2019-05-12T02:04:18.059Z,996.47
2019-05-12T02:05:18.184Z,996.56
2019-05-12T02:06:18.336Z,996.53
2019-05-12T02:07:18.087Z,996.56
2019-05-12T02:08:18.400Z,996.54
2019-05-12T02:09:18.528Z,996.60
2019-05-12T02:10:18.003Z,996.59
2019-05-12T02:11:18.307Z,996.62
2019-05-12T02:12:18.161Z,996.65
2019-05-12T02:13:18.161Z,996.67
2019-05-12T02:14:18.136Z,996.62
2019-05-12T02:15:18.225Z,996.73
2019-05-12T02:16:16.034Z,996.71
2019-05-12T02:17:17.900Z,996.68
2019-05-12T02:18:17.765Z,996.70
2019-05-12T02:19:17.811Z,996.71
2019-05-12T02:20:17.934Z,996.77
2019-05-12T02:21:15.914Z,996.77
2019-05-12T02:22:15.895Z,996.81
2019-05-12T02:23:17.826Z,996.84
2019-05-12T02:24:24.323Z,996.85
2019-05-12T02:25:18.474Z,996.85
2019-05-12T02:26:15.892Z,996.94
2019-05-12T02:27:23.719Z,996.93
2019-05-12T02:28:17.950Z,996.99
2019-05-12T02:29:18.154Z,997.04
2019-05-12T02:30:19.739Z,997.02
2019-05-12T02:31:15.804Z,997.04
2019-05-12T02:32:15.838Z,997.09
2019-05-12T02:33:16.183Z,997.13
2019-05-12T02:34:16.083Z,997.19
2019-05-12T02:35:16.288Z,997.14
2019-05-12T02:36:15.754Z,997.18
2019-05-12T02:37:15.732Z,997.22
2019-05-12T02:38:15.730Z,997.32
2019-05-12T02:39:15.761Z,997.30
2019-05-12T02:40:15.698Z,997.41
2019-05-12T02:41:15.847Z,997.35
2019-05-12T02:42:15.813Z,997.41
2019-05-12T02:43:15.758Z,997.42
2019-05-12T02:44:15.709Z,997.51
2019-05-12T02:45:15.770Z,997.47
2019-05-12T02:46:15.931Z,997.48
2019-05-12T02:47:16.226Z,997.54
2019-05-12T02:48:15.616Z,997.52
2019-05-12T02:49:15.950Z,997.60
2019-05-12T02:50:15.699Z,997.58
2019-05-12T02:51:15.893Z,997.66
2019-05-12T02:52:15.597Z,997.73
2019-05-12T02:53:15.578Z,997.75
2019-05-12T02:54:15.561Z,997.78
2019-05-12T02:55:15.539Z,997.83
2019-05-12T02:56:15.567Z,997.78
2019-05-12T02:57:15.522Z,997.84
2019-05-12T02:58:15.550Z,997.94
2019-05-12T02:59:25.283Z,997.91
2019-05-12T03:00:16.237Z,997.93
2019-05-12T03:01:15.473Z,997.98
2019-05-12T03:02:15.467Z,998.03
2019-05-12T03:03:15.493Z,998.08
2019-05-12T03:04:15.458Z,998.07
2019-05-12T03:05:15.431Z,998.15
2019-05-12T03:06:15.416Z,998.18
2019-05-12T03:07:15.622Z,998.15
2019-05-12T03:08:15.634Z,998.27
2019-05-12T03:09:15.407Z,998.32
2019-05-12T03:10:15.528Z,998.30
2019-05-12T03:11:15.363Z,998.41
2019-05-12T03:12:15.366Z,998.46
2019-05-12T03:13:15.400Z,998.54
2019-05-12T03:14:15.952Z,998.49
2019-05-12T03:15:15.415Z,998.56
2019-05-12T03:16:15.313Z,998.56
2019-05-12T03:17:15.458Z,998.58
2019-05-12T03:18:15.290Z,998.68
2019-05-12T03:19:15.359Z,998.74
2019-05-12T03:20:15.703Z,998.72
2019-05-12T03:21:15.465Z,998.75
2019-05-12T03:22:15.244Z,998.87
2019-05-12T03:23:18.987Z,998.85
2019-05-12T03:24:17.568Z,998.84
2019-05-12T03:25:23.893Z,998.85
2019-05-12T03:26:16.199Z,998.98
2019-05-12T03:27:17.813Z,998.93
2019-05-12T03:28:16.110Z,999.01
2019-05-12T03:29:15.165Z,999.01
2019-05-12T03:30:19.402Z,999.03
2019-05-12T03:31:29.888Z,999.12
2019-05-12T03:32:17.699Z,999.12
2019-05-12T03:33:19.102Z,999.11
2019-05-12T03:34:19.729Z,999.21
2019-05-12T03:35:17.910Z,999.21
2019-05-12T03:36:18.038Z,999.20
2019-05-12T03:37:17.601Z,999.24
2019-05-12T03:38:15.181Z,999.27
2019-05-12T03:39:15.255Z,999.35
2019-05-12T03:40:15.045Z,999.29
2019-05-12T03:41:15.089Z,999.39
2019-05-12T03:42:15.150Z,999.32
2019-05-12T03:43:15.073Z,999.42
2019-05-12T03:44:15.443Z,999.45
2019-05-12T03:45:15.198Z,999.47
2019-05-12T03:46:15.427Z,999.55
2019-05-12T03:47:14.980Z,999.52
2019-05-12T03:48:15.371Z,999.57
2019-05-12T03:49:15.540Z,999.54
2019-05-12T03:50:15.816Z,999.58
2019-05-12T03:51:15.569Z,999.55
2019-05-12T03:52:15.442Z,999.66
2019-05-12T03:53:15.833Z,999.69
2019-05-12T03:54:15.377Z,999.73
2019-05-12T03:55:30.749Z,999.81
2019-05-12T03:56:15.876Z,999.84
2019-05-12T03:57:15.265Z,999.90
2019-05-12T03:58:15.469Z,999.81
2019-05-12T03:59:15.357Z,999.93
2019-05-12T04:00:15.913Z,999.91
2019-05-12T04:01:15.301Z,999.92
2019-05-12T04:02:15.164Z,999.97
2019-05-12T04:03:24.712Z,1000.06
2019-05-12T04:04:15.406Z,1000.09
2019-05-12T04:05:15.792Z,1000.12
2019-05-12T04:06:15.647Z,1000.13
2019-05-12T04:07:15.437Z,1000.16
2019-05-12T04:08:15.842Z,1000.16
2019-05-12T04:09:15.790Z,1000.16
2019-05-12T04:10:15.970Z,1000.17
2019-05-12T04:11:14.867Z,1000.19
2019-05-12T04:12:15.057Z,1000.23
2019-05-12T04:13:15.271Z,1000.23
2019-05-12T04:14:15.121Z,1000.26
2019-05-12T04:15:15.401Z,1000.39
2019-05-12T04:16:16.453Z,1000.31
2019-05-12T04:17:15.078Z,1000.34
2019-05-12T04:18:15.996Z,1000.35
2019-05-12T04:19:15.064Z,1000.43
2019-05-12T04:20:15.434Z,1000.49
2019-05-12T04:21:15.634Z,1000.53
2019-05-12T04:22:15.458Z,1000.49
2019-05-12T04:23:15.622Z,1000.58
2019-05-12T04:24:14.679Z,1000.56
2019-05-12T04:25:14.936Z,1000.61
2019-05-12T04:26:16.984Z,1000.66
2019-05-12T04:27:15.227Z,1000.68
2019-05-12T04:28:15.192Z,1000.68
2019-05-12T04:29:15.423Z,1000.75
2019-05-12T04:30:14.835Z,1000.83
2019-05-12T04:31:15.414Z,1000.86
2019-05-12T04:32:14.639Z,1000.83
2019-05-12T04:33:15.499Z,1000.95
2019-05-12T04:34:18.693Z,1000.88
2019-05-12T04:35:21.443Z,1000.94
2019-05-12T04:36:15.042Z,1000.99
2019-05-12T04:37:14.956Z,1000.95
2019-05-12T04:38:15.192Z,1001.03
2019-05-12T04:39:14.896Z,1001.13
2019-05-12T04:40:15.100Z,1001.12
2019-05-12T04:41:14.766Z,1001.18
2019-05-12T04:42:14.975Z,1001.20
2019-05-12T04:43:14.845Z,1001.19
2019-05-12T04:44:15.512Z,1001.23
2019-05-12T04:45:15.741Z,1001.21
2019-05-12T04:46:14.732Z,1001.27
2019-05-12T04:47:14.682Z,1001.23
2019-05-12T04:48:15.665Z,1001.32
2019-05-12T04:49:15.690Z,1001.38
2019-05-12T04:50:15.700Z,1001.33
2019-05-12T04:51:15.351Z,1001.34
2019-05-12T04:52:15.534Z,1001.43
2019-05-12T04:53:14.654Z,1001.39
2019-05-12T04:54:15.385Z,1001.48
2019-05-12T04:55:15.203Z,1001.47
2019-05-12T04:56:19.114Z,1001.55
2019-05-12T04:57:15.220Z,1001.54
2019-05-12T04:58:15.844Z,1001.57
2019-05-12T04:59:15.617Z,1001.62
2019-05-12T05:00:15.781Z,1001.67
2019-05-12T05:01:15.596Z,1001.67
2019-05-12T05:02:15.307Z,1001.75
2019-05-12T05:03:14.532Z,1001.78
2019-05-12T05:04:15.529Z,1001.73
2019-05-12T05:05:14.624Z,1001.85
2019-05-12T05:06:15.015Z,1001.87
2019-05-12T05:07:24.191Z,1001.91
2019-05-12T05:08:19.182Z,1001.89
2019-05-12T05:09:15.084Z,1001.93
2019-05-12T05:10:14.676Z,1001.94
2019-05-12T05:11:14.924Z,1002.04
2019-05-12T05:12:14.146Z,1002.03
2019-05-12T05:13:14.963Z,1002.11
2019-05-12T05:14:14.507Z,1002.10
2019-05-12T05:15:14.773Z,1002.13
2019-05-12T05:16:14.528Z,1002.09
2019-05-12T05:17:15.050Z,1002.14
2019-05-12T05:18:14.003Z,1002.15
2019-05-12T05:19:14.043Z,1002.21
2019-05-12T05:20:13.970Z,1002.24
2019-05-12T05:21:14.114Z,1002.21
2019-05-12T05:22:13.994Z,1002.30
2019-05-12T05:23:14.388Z,1002.24
2019-05-12T05:24:14.322Z,1002.26
2019-05-12T05:25:14.560Z,1002.30
2019-05-12T05:26:22.123Z,1002.35
2019-05-12T05:27:14.887Z,1002.41
2019-05-12T05:28:14.744Z,1002.41
2019-05-12T05:29:13.869Z,1002.40
2019-05-12T05:30:14.036Z,1002.49
2019-05-12T05:31:14.106Z,1002.51
2019-05-12T05:32:14.118Z,1002.61
2019-05-12T05:33:14.679Z,1002.55
2019-05-12T05:34:14.827Z,1002.60
2019-05-12T05:35:13.881Z,1002.70
2019-05-12T05:36:19.466Z,1002.66
2019-05-12T05:37:14.777Z,1002.72
2019-05-12T05:38:19.210Z,1002.74
2019-05-12T05:40:04.160Z,1002.76
2019-05-12T05:41:06.075Z,1002.78
2019-05-12T05:42:05.063Z,1002.86
2019-05-12T05:43:12.621Z,1002.90
2019-05-12T05:44:05.040Z,1002.78
2019-05-12T05:45:04.869Z,1002.87
2019-05-12T05:46:07.901Z,1002.95
2019-05-12T05:47:04.421Z,1002.94
2019-05-12T05:48:05.469Z,1003.00
2019-05-12T05:49:05.005Z,1003.03
2019-05-12T05:50:04.734Z,1003.01
2019-05-12T05:51:05.709Z,1003.10
2019-05-12T05:52:03.950Z,1003.14
2019-05-12T05:53:04.334Z,1003.14
2019-05-12T05:54:04.151Z,1003.12
2019-05-12T05:55:05.937Z,1003.23
2019-05-12T05:56:04.917Z,1003.24
2019-05-12T05:57:06.100Z,1003.25
2019-05-12T05:58:08.561Z,1003.24
2019-05-12T05:59:04.924Z,1003.26
2019-05-12T06:00:07.242Z,1003.30
2019-05-12T06:01:08.020Z,1003.28
2019-05-12T06:02:04.964Z,1003.32
2019-05-12T06:03:05.381Z,1003.40
2019-05-12T06:04:08.353Z,1003.37
2019-05-12T06:05:04.501Z,1003.49
2019-05-12T06:06:10.320Z,1003.44
2019-05-12T06:07:04.795Z,1003.51
2019-05-12T06:08:04.272Z,1003.50
2019-05-12T06:09:03.805Z,1003.53
2019-05-12T06:10:04.155Z,1003.60
2019-05-12T06:11:04.809Z,1003.54
2019-05-12T06:12:10.712Z,1003.52
2019-05-12T06:13:04.197Z,1003.60
2019-05-12T06:14:11.288Z,1003.65
2019-05-12T06:15:04.703Z,1003.66
2019-05-12T06:16:04.444Z,1003.70
2019-05-12T06:17:04.326Z,1003.74
2019-05-12T06:18:03.995Z,1003.80
2019-05-12T06:19:03.720Z,1003.82
2019-05-12T06:20:04.398Z,1003.81
2019-05-12T06:21:03.674Z,1003.86
2019-05-12T06:22:04.045Z,1003.97
2019-05-12T06:23:04.431Z,1003.97
2019-05-12T06:24:03.771Z,1003.91
2019-05-12T06:25:04.843Z,1004.01
2019-05-12T06:26:04.664Z,1004.03
2019-05-12T06:27:14.292Z,1004.04
2019-05-12T06:28:08.038Z,1004.05
2019-05-12T06:29:04.500Z,1004.18
2019-05-12T06:30:06.351Z,1004.15
2019-05-12T06:31:04.228Z,1004.15
2019-05-12T06:32:06.410Z,1004.17
2019-05-12T06:33:04.520Z,1004.21
2019-05-12T06:34:05.961Z,1004.26
2019-05-12T06:35:04.735Z,1004.30
2019-05-12T06:36:06.969Z,1004.25
2019-05-12T06:37:11.872Z,1004.22
2019-05-12T06:38:05.234Z,1004.36
2019-05-12T06:39:04.374Z,1004.38
2019-05-12T06:40:03.715Z,1004.38
2019-05-12T06:41:03.651Z,1004.38
2019-05-12T06:42:12.769Z,1004.48
2019-05-12T06:43:04.716Z,1004.40
2019-05-12T06:44:17.195Z,1004.46
2019-05-12T06:45:04.380Z,1004.58
2019-05-12T06:46:03.717Z,1004.56
2019-05-12T06:47:07.948Z,1004.54
2019-05-12T06:48:04.356Z,1004.63
2019-05-12T06:49:11.854Z,1004.68
2019-05-12T06:50:04.328Z,1004.69
2019-05-12T06:51:04.050Z,1004.73
2019-05-12T06:52:07.110Z,1004.74
2019-05-12T06:53:05.012Z,1004.78
2019-05-12T06:54:07.255Z,1004.78
2019-05-12T06:55:04.281Z,1004.87
2019-05-12T06:56:04.503Z,1004.85
2019-05-12T06:57:18.710Z,1004.89
2019-05-12T06:58:04.650Z,1004.88
2019-05-12T06:59:09.744Z,1004.94
2019-05-12T07:00:04.713Z,1004.97
2019-05-12T07:01:10.268Z,1004.97
2019-05-12T07:02:04.205Z,1005.02
2019-05-12T07:03:04.048Z,1005.02
2019-05-12T07:04:08.270Z,1005.13
2019-05-12T07:05:04.520Z,1005.11
2019-05-12T07:06:04.104Z,1005.06
2019-05-12T07:07:03.664Z,1005.04
2019-05-12T07:08:04.187Z,1005.06
2019-05-12T07:09:09.219Z,1005.08
2019-05-12T07:10:11.757Z,1005.19
2019-05-12T07:11:06.093Z,1005.14
2019-05-12T07:12:07.000Z,1005.20
2019-05-12T07:13:05.729Z,1005.25
2019-05-12T07:14:08.024Z,1005.20
2019-05-12T07:15:04.141Z,1005.26
2019-05-12T07:16:15.228Z,1005.26
2019-05-12T07:17:05.947Z,1005.30
2019-05-12T07:18:04.254Z,1005.35
2019-05-12T07:19:09.657Z,1005.36
2019-05-12T07:20:04.073Z,1005.34
2019-05-12T07:21:04.117Z,1005.30
2019-05-12T07:22:03.606Z,1005.43
2019-05-12T07:23:04.202Z,1005.50
2019-05-12T07:24:06.654Z,1005.45
2019-05-12T07:25:04.486Z,1005.51
2019-05-12T07:26:05.085Z,1005.53
2019-05-12T07:27:08.986Z,1005.53
2019-05-12T07:28:07.642Z,1005.57
2019-05-12T07:29:04.485Z,1005.52
2019-05-12T07:30:04.759Z,1005.56
2019-05-12T07:31:03.888Z,1005.55
2019-05-12T07:32:07.185Z,1005.60
2019-05-12T07:33:04.582Z,1005.67
2019-05-12T07:34:07.188Z,1005.66
2019-05-12T07:35:03.930Z,1005.69
2019-05-12T07:36:06.356Z,1005.72
2019-05-12T07:37:04.381Z,1005.67
2019-05-12T07:38:04.633Z,1005.80
2019-05-12T07:39:05.362Z,1005.83
2019-05-12T07:40:04.839Z,1005.87
2019-05-12T07:41:06.760Z,1005.87
2019-05-12T07:42:03.796Z,1005.90
2019-05-12T07:43:04.021Z,1005.95
2019-05-12T07:44:03.613Z,1005.95
2019-05-12T07:45:03.920Z,1006.06
2019-05-12T07:46:06.934Z,1006.13
2019-05-12T07:47:03.613Z,1006.04
2019-05-12T07:48:10.443Z,1006.04
2019-05-12T07:49:03.887Z,1006.14
2019-05-12T07:50:04.488Z,1006.07
2019-05-12T07:51:04.142Z,1006.14
2019-05-12T07:52:03.598Z,1006.13
2019-05-12T07:53:04.123Z,1006.19
2019-05-12T07:54:04.092Z,1006.20
2019-05-12T07:55:04.313Z,1006.29
2019-05-12T07:56:04.110Z,1006.29
2019-05-12T07:57:11.123Z,1006.36
2019-05-12T07:58:12.655Z,1006.41
2019-05-12T07:59:04.378Z,1006.39
2019-05-12T08:00:03.578Z,1006.52
2019-05-12T08:01:05.145Z,1006.50
2019-05-12T08:02:03.991Z,1006.56
2019-05-12T08:03:08.125Z,1006.60
2019-05-12T08:04:04.495Z,1006.59
2019-05-12T08:05:03.861Z,1006.68
2019-05-12T08:06:04.614Z,1006.70
2019-05-12T08:07:03.935Z,1006.75
2019-05-12T08:08:06.956Z,1006.73
2019-05-12T08:09:04.151Z,1006.71
2019-05-12T08:10:07.330Z,1006.73
2019-05-12T08:11:04.416Z,1006.77
2019-05-12T08:12:03.982Z,1006.77
2019-05-12T08:13:04.523Z,1006.88
2019-05-12T08:14:03.603Z,1006.87
2019-05-12T08:15:07.806Z,1006.84
2019-05-12T08:16:03.772Z,1006.93
2019-05-12T08:17:11.191Z,1006.96
2019-05-12T08:18:07.375Z,1006.95
2019-05-12T08:19:04.022Z,1007.00
2019-05-12T08:20:13.307Z,1007.11
2019-05-12T08:21:03.792Z,1007.09
2019-05-12T08:22:04.342Z,1007.03
2019-05-12T08:23:05.755Z,1007.14
2019-05-12T08:24:03.777Z,1007.13
2019-05-12T08:25:04.229Z,1007.13
2019-05-12T08:26:03.701Z,1007.22
2019-05-12T08:27:06.537Z,1007.25
2019-05-12T08:28:14.113Z,1007.29
2019-05-12T08:29:04.280Z,1007.34
2019-05-12T08:30:05.511Z,1007.41
2019-05-12T08:31:03.647Z,1007.44
2019-05-12T08:32:03.773Z,1007.40
2019-05-12T08:33:08.956Z,1007.48
2019-05-12T08:34:04.269Z,1007.61
2019-05-12T08:35:04.868Z,1007.55
2019-05-12T08:36:05.499Z,1007.57
2019-05-12T08:37:04.417Z,1007.58
2019-05-12T08:38:03.884Z,1007.63
2019-05-12T08:39:05.892Z,1007.63
2019-05-12T08:40:04.261Z,1007.67
2019-05-12T08:41:04.195Z,1007.68
2019-05-12T08:42:04.025Z,1007.79
2019-05-12T08:43:07.940Z,1007.80
2019-05-12T08:44:04.594Z,1007.87
2019-05-12T08:45:04.174Z,1007.80
2019-05-12T08:46:09.952Z,1007.77
2019-05-12T08:47:03.920Z,1007.94
2019-05-12T08:48:03.841Z,1007.91
2019-05-12T08:49:03.053Z,1007.97
2019-05-12T08:50:04.538Z,1007.82
2019-05-12T08:51:05.274Z,1007.93
2019-05-12T08:53:20.326Z,1007.96
2019-05-12T08:54:14.196Z,1007.95
2019-05-12T08:55:14.696Z,1008.03
2019-05-12T08:56:17.105Z,1007.99
2019-05-12T08:57:14.296Z,1007.98
2019-05-12T08:58:29.136Z,1008.06
2019-05-12T08:59:15.552Z,1008.08
2019-05-12T09:00:13.465Z,1008.07
2019-05-12T09:01:13.643Z,1008.15
2019-05-12T09:02:14.014Z,1008.12
2019-05-12T09:03:13.933Z,1008.17
2019-05-12T09:04:17.321Z,1008.14
2019-05-12T09:05:14.416Z,1008.10
2019-05-12T09:06:15.573Z,1008.06
2019-05-12T09:07:13.836Z,1008.18
2019-05-12T09:08:13.661Z,1008.19
2019-05-12T09:09:13.834Z,1008.18
2019-05-12T09:10:11.595Z,1008.24
2019-05-12T09:11:13.783Z,1008.27
2019-05-12T09:12:13.861Z,1008.29
2019-05-12T09:13:11.553Z,1008.26
2019-05-12T09:14:11.548Z,1008.24
2019-05-12T09:15:13.587Z,1008.29
2019-05-12T09:16:13.648Z,1008.41
2019-05-12T09:17:13.524Z,1008.38
2019-05-12T09:18:11.508Z,1008.50
2019-05-12T09:19:16.616Z,1008.44
2019-05-12T09:20:13.799Z,1008.47
2019-05-12T09:21:13.876Z,1008.44
2019-05-12T09:22:16.806Z,1008.55
2019-05-12T09:23:13.635Z,1008.54
2019-05-12T09:24:13.640Z,1008.64
2019-05-12T09:25:18.914Z,1008.62
2019-05-12T09:26:13.545Z,1008.67
2019-05-12T09:27:13.476Z,1008.60
2019-05-12T09:28:13.597Z,1008.66
2019-05-12T09:29:11.379Z,1008.68
2019-05-12T09:30:11.377Z,1008.75
2019-05-12T09:31:11.371Z,1008.77
2019-05-12T09:32:11.402Z,1008.81
2019-05-12T09:33:11.341Z,1008.76
2019-05-12T09:34:13.562Z,1008.83
2019-05-12T09:35:11.323Z,1008.90
2019-05-12T09:36:19.543Z,1008.93
2019-05-12T09:37:14.246Z,1008.88
2019-05-12T09:38:20.854Z,1008.96
2019-05-12T09:39:14.203Z,1008.97
2019-05-12T09:40:11.276Z,1008.97
2019-05-12T09:41:13.753Z,1008.99
2019-05-12T09:42:11.292Z,1008.96
2019-05-12T09:43:13.459Z,1008.93
2019-05-12T09:44:13.225Z,1009.00
2019-05-12T09:45:11.250Z,1009.04
2019-05-12T09:46:11.204Z,1009.02
2019-05-12T09:47:21.986Z,1009.07
2019-05-12T09:48:14.055Z,1009.12
2019-05-12T09:49:11.164Z,1009.14
2019-05-12T09:50:18.319Z,1009.09
2019-05-12T09:51:13.341Z,1009.13
2019-05-12T09:52:13.890Z,1009.20
2019-05-12T09:53:14.178Z,1009.20
2019-05-12T09:54:11.286Z,1009.18
2019-05-12T09:55:11.109Z,1009.26
2019-05-12T09:56:11.094Z,1009.22
2019-05-12T09:57:21.005Z,1009.28
2019-05-12T09:58:14.064Z,1009.31
2019-05-12T09:59:19.055Z,1009.28
2019-05-12T10:00:13.693Z,1009.29
2019-05-12T10:01:11.036Z,1009.31
2019-05-12T10:02:16.542Z,1009.26
2019-05-12T10:03:13.863Z,1009.33
2019-05-12T10:04:16.349Z,1009.41
2019-05-12T10:05:14.223Z,1009.38
2019-05-12T10:06:11.449Z,1009.41
2019-05-12T10:07:14.000Z,1009.43
2019-05-12T10:08:13.228Z,1009.44
2019-05-12T10:09:15.646Z,1009.51
2019-05-12T10:10:14.024Z,1009.54
2019-05-12T10:11:16.462Z,1009.48
2019-05-12T10:12:13.536Z,1009.56
2019-05-12T10:13:10.917Z,1009.51
2019-05-12T10:14:11.165Z,1009.55
2019-05-12T10:15:10.900Z,1009.61
2019-05-12T10:16:10.875Z,1009.64
2019-05-12T10:17:10.864Z,1009.74
2019-05-12T10:18:11.408Z,1009.69
2019-05-12T10:19:10.841Z,1009.71
2019-05-12T10:20:10.890Z,1009.77
2019-05-12T10:21:15.486Z,1009.78
2019-05-12T10:22:11.807Z,1009.84
2019-05-12T10:23:18.612Z,1009.94
2019-05-12T10:24:11.813Z,1009.96
2019-05-12T10:25:10.779Z,1009.95
2019-05-12T10:26:12.304Z,1010.08
2019-05-12T10:27:10.757Z,1010.00
2019-05-12T10:28:11.694Z,1009.94
2019-05-12T10:29:20.828Z,1010.05
2019-05-12T10:30:13.422Z,1009.90
2019-05-12T10:31:13.868Z,1009.98
2019-05-12T10:32:10.704Z,1010.05
2019-05-12T10:33:10.694Z,1010.06
2019-05-12T10:34:10.684Z,1009.98
2019-05-12T10:35:12.445Z,1010.00
2019-05-12T10:36:11.713Z,1009.98
2019-05-12T10:37:10.647Z,1010.07
2019-05-12T10:38:10.982Z,1010.09
2019-05-12T10:39:10.662Z,1010.11
2019-05-12T10:40:10.626Z,1010.09
2019-05-12T10:41:10.621Z,1010.17
2019-05-12T10:42:10.606Z,1010.15
2019-05-12T10:43:10.578Z,1010.18
2019-05-12T10:44:10.565Z,1010.09
2019-05-12T10:45:15.477Z,1010.20
2019-05-12T10:46:13.257Z,1010.27
2019-05-12T10:47:10.551Z,1010.27
2019-05-12T10:48:10.526Z,1010.31
2019-05-12T10:49:10.519Z,1010.27
2019-05-12T10:50:10.505Z,1010.26
2019-05-12T10:51:10.541Z,1010.26
2019-05-12T10:52:10.494Z,1010.24
2019-05-12T10:53:15.437Z,1010.35
2019-05-12T10:54:13.150Z,1010.31
2019-05-12T10:55:10.449Z,1010.32
2019-05-12T10:56:10.466Z,1010.35
2019-05-12T10:57:10.509Z,1010.34
2019-05-12T10:58:10.417Z,1010.42
2019-05-12T10:59:10.412Z,1010.41
2019-05-12T11:00:10.393Z,1010.35
2019-05-12T11:01:18.060Z,1010.39
2019-05-12T11:02:10.372Z,1010.45
2019-05-12T11:03:12.324Z,1010.47
2019-05-12T11:04:10.356Z,1010.59
2019-05-12T11:05:12.475Z,1010.54
2019-05-12T11:06:11.339Z,1010.62
2019-05-12T11:07:10.320Z,1010.68
2019-05-12T11:08:11.342Z,1010.72
2019-05-12T11:09:10.350Z,1010.75
2019-05-12T11:10:16.526Z,1010.58
2019-05-12T11:11:13.508Z,1010.64
2019-05-12T11:12:10.320Z,1010.67
2019-05-12T11:13:10.262Z,1010.73
2019-05-12T11:14:10.243Z,1010.73
2019-05-12T11:15:10.285Z,1010.74
2019-05-12T11:16:10.339Z,1010.76
2019-05-12T11:17:10.219Z,1010.75
2019-05-12T11:18:10.201Z,1010.74
2019-05-12T11:19:10.748Z,1010.73
2019-05-12T11:20:10.182Z,1010.85
2019-05-12T11:21:10.181Z,1010.81
2019-05-12T11:22:10.266Z,1010.84
2019-05-12T11:23:10.163Z,1010.81
2019-05-12T11:24:10.134Z,1010.96
2019-05-12T11:25:10.141Z,1010.90
2019-05-12T11:26:10.151Z,1010.97
2019-05-12T11:27:10.102Z,1010.87
2019-05-12T11:28:10.133Z,1010.88
2019-05-12T11:29:10.085Z,1010.97
2019-05-12T11:30:10.071Z,1010.98
2019-05-12T11:31:10.058Z,1010.95
2019-05-12T11:32:10.093Z,1011.02
2019-05-12T11:33:17.024Z,1011.08
2019-05-12T11:34:10.028Z,1011.03
2019-05-12T11:35:10.013Z,1010.95
2019-05-12T11:36:10.013Z,1011.05
2019-05-12T11:37:10.012Z,1011.08
2019-05-12T11:38:09.989Z,1011.01
2019-05-12T11:39:10.001Z,1011.03
2019-05-12T11:40:09.963Z,1011.06
2019-05-12T11:41:15.415Z,1011.00
2019-05-12T11:42:13.259Z,1011.03
2019-05-12T11:43:09.946Z,1011.07
2019-05-12T11:44:09.922Z,1011.04
2019-05-12T11:45:09.925Z,1011.10
2019-05-12T11:46:09.906Z,1011.14
2019-05-12T11:47:16.929Z,1011.15
2019-05-12T11:48:10.943Z,1011.18
2019-05-12T11:49:09.866Z,1011.16
2019-05-12T11:50:10.228Z,1011.24
2019-05-12T11:51:09.847Z,1011.25
2019-05-12T11:52:15.497Z,1011.22
2019-05-12T11:53:13.597Z,1011.34
2019-05-12T11:54:10.930Z,1011.35
2019-05-12T11:55:09.806Z,1011.34
2019-05-12T11:56:09.803Z,1011.38
2019-05-12T11:57:09.778Z,1011.33
2019-05-12T11:58:11.584Z,1011.37
2019-05-12T11:59:09.810Z,1011.33
2019-05-12T12:00:09.755Z,1011.36
2019-05-12T12:01:09.737Z,1011.41
2019-05-12T12:02:09.733Z,1011.42
2019-05-12T12:03:17.048Z,1011.45
2019-05-12T12:04:10.707Z,1011.46
2019-05-12T12:05:17.148Z,1011.47
2019-05-12T12:06:09.682Z,1011.50
2019-05-12T12:07:09.666Z,1011.55
2019-05-12T12:08:09.662Z,1011.52
2019-05-12T12:09:15.530Z,1011.55
2019-05-12T12:10:10.683Z,1011.58
2019-05-12T12:11:10.512Z,1011.61
2019-05-12T12:12:10.724Z,1011.60
2019-05-12T12:13:09.610Z,1011.75
2019-05-12T12:14:10.659Z,1011.66
2019-05-12T12:15:09.643Z,1011.79